sensor_id;sensor_type;location;lat;lon;timestamp;P1;durP1;ratioP1;P2;durP2;ratioP2
66093;SDS011;52876;49.394;10.892;2022-10-03T00:01:04;26.87;;;17.33;;
66093;SDS011;52876;49.394;10.892;2022-10-03T00:03:53;20.60;;;16.30;;
66093;SDS011;52876;49.394;10.892;2022-10-03T00:06:29;19.80;;;17.00;;
66093;SDS011;52876;49.394;10.892;2022-10-03T00:09:13;25.33;;;17.80;;
66093;SDS011;52876;49.394;10.892;2022-10-03T00:11:55;24.30;;;17.27;;
66093;SDS011;52876;49.394;10.892;2022-10-03T00:14:29;24.53;;;17.97;;
66093;SDS011;52876;49.394;10.892;2022-10-03T00:17:06;22.87;;;17.30;;
66093;SDS011;52876;49.394;10.892;2022-10-03T00:19:43;21.40;;;16.77;;
66093;SDS011;52876;49.394;10.892;2022-10-03T00:22:23;29.90;;;18.90;;
66093;SDS011;52876;49.394;10.892;2022-10-03T00:24:58;21.03;;;16.83;;
66093;SDS011;52876;49.394;10.892;2022-10-03T00:27:40;27.80;;;17.37;;
66093;SDS011;52876;49.394;10.892;2022-10-03T00:30:12;22.80;;;17.30;;
66093;SDS011;52876;49.394;10.892;2022-10-03T00:32:45;23.47;;;16.87;;
66093;SDS011;52876;49.394;10.892;2022-10-03T00:35:27;23.53;;;16.63;;
66093;SDS011;52876;49.394;10.892;2022-10-03T00:38:03;21.10;;;16.30;;
66093;SDS011;52876;49.394;10.892;2022-10-03T00:40:52;27.27;;;17.97;;
66093;SDS011;52876;49.394;10.892;2022-10-03T00:43:46;21.60;;;16.37;;
66093;SDS011;52876;49.394;10.892;2022-10-03T00:46:44;22.47;;;16.00;;
66093;SDS011;52876;49.394;10.892;2022-10-03T00:52:26;19.33;;;15.47;;
66093;SDS011;52876;49.394;10.892;2022-10-03T00:55:10;28.10;;;18.97;;
66093;SDS011;52876;49.394;10.892;2022-10-03T00:57:57;23.23;;;17.20;;
66093;SDS011;52876;49.394;10.892;2022-10-03T01:00:39;27.63;;;16.87;;
66093;SDS011;52876;49.394;10.892;2022-10-03T01:03:14;29.33;;;17.27;;
66093;SDS011;52876;49.394;10.892;2022-10-03T01:06:00;22.30;;;15.80;;
66093;SDS011;52876;49.394;10.892;2022-10-03T01:08:51;22.40;;;16.83;;
66093;SDS011;52876;49.394;10.892;2022-10-03T01:11:33;21.67;;;15.70;;
66093;SDS011;52876;49.394;10.892;2022-10-03T01:14:13;24.17;;;18.17;;
66093;SDS011;52876;49.394;10.892;2022-10-03T01:16:52;30.33;;;18.57;;
66093;SDS011;52876;49.394;10.892;2022-10-03T01:19:34;23.30;;;17.30;;
66093;SDS011;52876;49.394;10.892;2022-10-03T01:22:23;23.47;;;16.60;;
66093;SDS011;52876;49.394;10.892;2022-10-03T01:25:11;26.30;;;19.53;;
66093;SDS011;52876;49.394;10.892;2022-10-03T01:27:46;31.23;;;18.73;;
66093;SDS011;52876;49.394;10.892;2022-10-03T01:30:20;27.50;;;20.17;;
66093;SDS011;52876;49.394;10.892;2022-10-03T01:32:49;23.20;;;17.90;;
66093;SDS011;52876;49.394;10.892;2022-10-03T01:35:23;28.10;;;17.33;;
66093;SDS011;52876;49.394;10.892;2022-10-03T01:37:57;26.00;;;18.57;;
66093;SDS011;52876;49.394;10.892;2022-10-03T01:40:34;22.70;;;17.30;;
66093;SDS011;52876;49.394;10.892;2022-10-03T01:43:09;31.33;;;20.20;;
66093;SDS011;52876;49.394;10.892;2022-10-03T01:45:45;25.87;;;18.30;;
66093;SDS011;52876;49.394;10.892;2022-10-03T01:48:21;22.97;;;17.17;;
66093;SDS011;52876;49.394;10.892;2022-10-03T01:50:58;26.67;;;17.10;;
66093;SDS011;52876;49.394;10.892;2022-10-03T01:53:31;28.27;;;18.67;;
66093;SDS011;52876;49.394;10.892;2022-10-03T01:56:07;25.30;;;17.77;;
66093;SDS011;52876;49.394;10.892;2022-10-03T01:58:46;22.50;;;17.97;;
66093;SDS011;52876;49.394;10.892;2022-10-03T02:01:20;26.37;;;17.50;;
66093;SDS011;52876;49.394;10.892;2022-10-03T02:03:52;24.90;;;17.57;;
66093;SDS011;52876;49.394;10.892;2022-10-03T02:06:26;24.60;;;16.00;;
66093;SDS011;52876;49.394;10.892;2022-10-03T02:09:04;23.10;;;16.80;;
66093;SDS011;52876;49.394;10.892;2022-10-03T02:11:36;28.70;;;17.57;;
66093;SDS011;52876;49.394;10.892;2022-10-03T02:14:13;23.17;;;16.30;;
66093;SDS011;52876;49.394;10.892;2022-10-03T02:16:54;21.90;;;16.73;;
66093;SDS011;52876;49.394;10.892;2022-10-03T02:19:24;28.63;;;19.83;;
66093;SDS011;52876;49.394;10.892;2022-10-03T02:21:54;30.43;;;18.47;;
66093;SDS011;52876;49.394;10.892;2022-10-03T02:24:25;25.07;;;18.67;;
66093;SDS011;52876;49.394;10.892;2022-10-03T02:30:16;26.43;;;16.87;;
66093;SDS011;52876;49.394;10.892;2022-10-03T02:33:07;29.07;;;19.23;;
66093;SDS011;52876;49.394;10.892;2022-10-03T02:39:45;20.40;;;15.93;;
66093;SDS011;52876;49.394;10.892;2022-10-03T02:42:44;23.73;;;16.40;;
66093;SDS011;52876;49.394;10.892;2022-10-03T02:45:58;23.30;;;16.73;;
66093;SDS011;52876;49.394;10.892;2022-10-03T02:49:01;26.90;;;16.20;;
66093;SDS011;52876;49.394;10.892;2022-10-03T02:52:03;27.80;;;15.53;;
66093;SDS011;52876;49.394;10.892;2022-10-03T02:54:54;28.73;;;16.47;;
66093;SDS011;52876;49.394;10.892;2022-10-03T02:57:34;23.70;;;17.80;;
66093;SDS011;52876;49.394;10.892;2022-10-03T03:00:17;22.77;;;15.50;;
66093;SDS011;52876;49.394;10.892;2022-10-03T03:03:13;20.97;;;16.23;;
66093;SDS011;52876;49.394;10.892;2022-10-03T03:09:08;24.83;;;16.80;;
66093;SDS011;52876;49.394;10.892;2022-10-03T03:17:51;26.67;;;17.47;;
66093;SDS011;52876;49.394;10.892;2022-10-03T03:20:31;26.63;;;16.10;;
66093;SDS011;52876;49.394;10.892;2022-10-03T03:23:13;23.70;;;17.13;;
66093;SDS011;52876;49.394;10.892;2022-10-03T03:26:01;23.53;;;16.47;;
66093;SDS011;52876;49.394;10.892;2022-10-03T03:28:39;26.10;;;17.77;;
66093;SDS011;52876;49.394;10.892;2022-10-03T03:31:10;23.50;;;18.50;;
66093;SDS011;52876;49.394;10.892;2022-10-03T03:33:43;28.73;;;16.83;;
66093;SDS011;52876;49.394;10.892;2022-10-03T03:36:16;26.87;;;19.10;;
66093;SDS011;52876;49.394;10.892;2022-10-03T03:38:50;29.70;;;18.10;;
66093;SDS011;52876;49.394;10.892;2022-10-03T03:41:30;25.77;;;18.47;;
66093;SDS011;52876;49.394;10.892;2022-10-03T03:44:19;30.00;;;18.60;;
66093;SDS011;52876;49.394;10.892;2022-10-03T03:47:09;28.00;;;18.63;;
66093;SDS011;52876;49.394;10.892;2022-10-03T03:49:48;29.80;;;18.90;;
66093;SDS011;52876;49.394;10.892;2022-10-03T03:52:27;23.80;;;17.87;;
66093;SDS011;52876;49.394;10.892;2022-10-03T03:58:16;27.53;;;16.60;;
66093;SDS011;52876;49.394;10.892;2022-10-03T04:03:57;30.13;;;18.50;;
66093;SDS011;52876;49.394;10.892;2022-10-03T04:06:32;23.77;;;16.27;;
66093;SDS011;52876;49.394;10.892;2022-10-03T04:09:13;30.50;;;17.50;;
66093;SDS011;52876;49.394;10.892;2022-10-03T04:11:53;28.77;;;19.80;;
66093;SDS011;52876;49.394;10.892;2022-10-03T04:14:32;26.70;;;19.00;;
66093;SDS011;52876;49.394;10.892;2022-10-03T04:17:15;35.90;;;20.90;;
66093;SDS011;52876;49.394;10.892;2022-10-03T04:19:56;33.50;;;20.43;;
66093;SDS011;52876;49.394;10.892;2022-10-03T04:22:39;32.83;;;18.77;;
66093;SDS011;52876;49.394;10.892;2022-10-03T04:25:21;26.13;;;16.97;;
66093;SDS011;52876;49.394;10.892;2022-10-03T04:31:23;27.33;;;18.47;;
66093;SDS011;52876;49.394;10.892;2022-10-03T04:34:04;26.70;;;17.67;;
66093;SDS011;52876;49.394;10.892;2022-10-03T04:36:54;31.50;;;18.43;;
66093;SDS011;52876;49.394;10.892;2022-10-03T04:39:47;24.80;;;17.23;;
66093;SDS011;52876;49.394;10.892;2022-10-03T04:42:24;24.20;;;16.33;;
66093;SDS011;52876;49.394;10.892;2022-10-03T04:45:03;25.27;;;15.50;;
66093;SDS011;52876;49.394;10.892;2022-10-03T04:47:41;25.83;;;18.17;;
66093;SDS011;52876;49.394;10.892;2022-10-03T04:50:19;31.47;;;19.43;;
66093;SDS011;52876;49.394;10.892;2022-10-03T04:52:55;25.43;;;17.93;;
66093;SDS011;52876;49.394;10.892;2022-10-03T04:55:32;23.67;;;16.30;;
66093;SDS011;52876;49.394;10.892;2022-10-03T04:58:14;31.87;;;17.90;;
66093;SDS011;52876;49.394;10.892;2022-10-03T05:00:47;24.13;;;16.83;;
66093;SDS011;52876;49.394;10.892;2022-10-03T05:03:26;24.07;;;16.30;;
66093;SDS011;52876;49.394;10.892;2022-10-03T05:06:01;28.33;;;16.97;;
66093;SDS011;52876;49.394;10.892;2022-10-03T05:08:34;31.03;;;18.87;;
66093;SDS011;52876;49.394;10.892;2022-10-03T05:11:08;22.70;;;17.20;;
66093;SDS011;52876;49.394;10.892;2022-10-03T05:13:43;26.77;;;17.93;;
66093;SDS011;52876;49.394;10.892;2022-10-03T05:16:23;28.47;;;18.63;;
66093;SDS011;52876;49.394;10.892;2022-10-03T05:19:04;26.83;;;17.40;;
66093;SDS011;52876;49.394;10.892;2022-10-03T05:21:46;25.90;;;17.53;;
66093;SDS011;52876;49.394;10.892;2022-10-03T05:24:21;26.57;;;17.70;;
66093;SDS011;52876;49.394;10.892;2022-10-03T05:26:59;28.67;;;18.90;;
66093;SDS011;52876;49.394;10.892;2022-10-03T05:29:34;31.90;;;18.13;;
66093;SDS011;52876;49.394;10.892;2022-10-03T05:32:09;25.13;;;16.27;;
66093;SDS011;52876;49.394;10.892;2022-10-03T05:34:57;26.27;;;17.40;;
66093;SDS011;52876;49.394;10.892;2022-10-03T05:37:42;35.33;;;20.50;;
66093;SDS011;52876;49.394;10.892;2022-10-03T05:40:21;35.67;;;19.77;;
66093;SDS011;52876;49.394;10.892;2022-10-03T05:43:00;28.67;;;18.57;;
66093;SDS011;52876;49.394;10.892;2022-10-03T05:45:36;31.20;;;19.80;;
66093;SDS011;52876;49.394;10.892;2022-10-03T05:48:14;32.33;;;19.70;;
66093;SDS011;52876;49.394;10.892;2022-10-03T05:51:07;26.30;;;16.20;;
66093;SDS011;52876;49.394;10.892;2022-10-03T05:53:58;29.70;;;18.30;;
66093;SDS011;52876;49.394;10.892;2022-10-03T05:56:37;30.13;;;19.73;;
66093;SDS011;52876;49.394;10.892;2022-10-03T05:59:23;30.13;;;18.37;;
66093;SDS011;52876;49.394;10.892;2022-10-03T06:02:19;37.37;;;19.70;;
66093;SDS011;52876;49.394;10.892;2022-10-03T06:05:12;29.90;;;20.10;;
66093;SDS011;52876;49.394;10.892;2022-10-03T06:07:50;24.10;;;16.97;;
66093;SDS011;52876;49.394;10.892;2022-10-03T06:10:38;25.80;;;17.53;;
66093;SDS011;52876;49.394;10.892;2022-10-03T06:13:10;38.13;;;20.47;;
66093;SDS011;52876;49.394;10.892;2022-10-03T06:15:47;28.67;;;19.00;;
66093;SDS011;52876;49.394;10.892;2022-10-03T06:18:25;30.90;;;19.10;;
66093;SDS011;52876;49.394;10.892;2022-10-03T06:21:23;32.30;;;20.13;;
66093;SDS011;52876;49.394;10.892;2022-10-03T06:24:27;30.53;;;19.70;;
66093;SDS011;52876;49.394;10.892;2022-10-03T06:30:19;28.73;;;18.33;;
66093;SDS011;52876;49.394;10.892;2022-10-03T06:42:28;32.67;;;18.90;;
66093;SDS011;52876;49.394;10.892;2022-10-03T06:45:14;30.93;;;18.30;;
66093;SDS011;52876;49.394;10.892;2022-10-03T06:48:06;30.10;;;19.30;;
66093;SDS011;52876;49.394;10.892;2022-10-03T06:50:52;31.93;;;19.07;;
66093;SDS011;52876;49.394;10.892;2022-10-03T06:53:37;32.37;;;18.53;;
66093;SDS011;52876;49.394;10.892;2022-10-03T06:56:40;25.90;;;17.20;;
66093;SDS011;52876;49.394;10.892;2022-10-03T06:59:41;20.80;;;14.83;;
66093;SDS011;52876;49.394;10.892;2022-10-03T07:02:33;19.40;;;14.57;;
66093;SDS011;52876;49.394;10.892;2022-10-03T07:08:36;19.87;;;14.37;;
66093;SDS011;52876;49.394;10.892;2022-10-03T07:11:34;24.27;;;15.30;;
66093;SDS011;52876;49.394;10.892;2022-10-03T07:17:32;19.07;;;13.77;;
66093;SDS011;52876;49.394;10.892;2022-10-03T07:20:20;21.53;;;12.77;;
66093;SDS011;52876;49.394;10.892;2022-10-03T07:23:28;15.30;;;11.53;;
66093;SDS011;52876;49.394;10.892;2022-10-03T07:29:06;20.90;;;13.40;;
66093;SDS011;52876;49.394;10.892;2022-10-03T07:31:53;18.23;;;11.87;;
66093;SDS011;52876;49.394;10.892;2022-10-03T07:34:43;14.60;;;12.57;;
66093;SDS011;52876;49.394;10.892;2022-10-03T07:37:41;17.10;;;11.20;;
66093;SDS011;52876;49.394;10.892;2022-10-03T07:40:37;18.27;;;12.10;;
66093;SDS011;52876;49.394;10.892;2022-10-03T07:46:35;19.03;;;11.57;;
66093;SDS011;52876;49.394;10.892;2022-10-03T07:49:34;18.20;;;13.37;;
66093;SDS011;52876;49.394;10.892;2022-10-03T07:52:39;15.50;;;9.57;;
66093;SDS011;52876;49.394;10.892;2022-10-03T07:55:20;13.50;;;9.90;;
66093;SDS011;52876;49.394;10.892;2022-10-03T07:57:58;15.10;;;10.70;;
66093;SDS011;52876;49.394;10.892;2022-10-03T08:00:40;16.17;;;8.67;;
66093;SDS011;52876;49.394;10.892;2022-10-03T08:03:44;14.63;;;13.03;;
66093;SDS011;52876;49.394;10.892;2022-10-03T08:06:42;12.97;;;10.03;;
66093;SDS011;52876;49.394;10.892;2022-10-03T08:09:21;11.00;;;9.30;;
66093;SDS011;52876;49.394;10.892;2022-10-03T08:12:21;14.23;;;10.47;;
66093;SDS011;52876;49.394;10.892;2022-10-03T08:15:04;11.10;;;7.90;;
66093;SDS011;52876;49.394;10.892;2022-10-03T08:17:59;10.37;;;7.80;;
66093;SDS011;52876;49.394;10.892;2022-10-03T08:20:46;10.60;;;7.50;;
66093;SDS011;52876;49.394;10.892;2022-10-03T08:26:56;11.73;;;7.93;;
66093;SDS011;52876;49.394;10.892;2022-10-03T08:30:02;11.10;;;6.90;;
66093;SDS011;52876;49.394;10.892;2022-10-03T08:38:59;9.17;;;7.03;;
66093;SDS011;52876;49.394;10.892;2022-10-03T08:41:49;14.73;;;6.80;;
66093;SDS011;52876;49.394;10.892;2022-10-03T08:47:49;11.67;;;6.40;;
66093;SDS011;52876;49.394;10.892;2022-10-03T08:50:48;8.40;;;5.87;;
66093;SDS011;52876;49.394;10.892;2022-10-03T08:53:38;9.37;;;7.30;;
66093;SDS011;52876;49.394;10.892;2022-10-03T08:56:38;6.93;;;5.73;;
66093;SDS011;52876;49.394;10.892;2022-10-03T09:05:24;7.20;;;5.97;;
66093;SDS011;52876;49.394;10.892;2022-10-03T09:14:30;5.73;;;4.80;;
66093;SDS011;52876;49.394;10.892;2022-10-03T09:17:11;7.30;;;5.03;;
66093;SDS011;52876;49.394;10.892;2022-10-03T09:22:55;6.63;;;5.40;;
66093;SDS011;52876;49.394;10.892;2022-10-03T09:31:29;8.20;;;6.90;;
66093;SDS011;52876;49.394;10.892;2022-10-03T09:34:29;6.93;;;6.23;;
66093;SDS011;52876;49.394;10.892;2022-10-03T09:43:28;5.20;;;4.10;;
66093;SDS011;52876;49.394;10.892;2022-10-03T09:46:42;10.37;;;5.60;;
66093;SDS011;52876;49.394;10.892;2022-10-03T09:52:08;9.33;;;5.83;;
66093;SDS011;52876;49.394;10.892;2022-10-03T09:54:57;9.10;;;5.20;;
66093;SDS011;52876;49.394;10.892;2022-10-03T09:57:49;4.90;;;3.73;;
66093;SDS011;52876;49.394;10.892;2022-10-03T10:00:48;9.27;;;4.67;;
66093;SDS011;52876;49.394;10.892;2022-10-03T10:09:53;5.17;;;4.67;;
66093;SDS011;52876;49.394;10.892;2022-10-03T10:18:48;5.57;;;3.43;;
66093;SDS011;52876;49.394;10.892;2022-10-03T10:21:41;7.70;;;3.00;;
66093;SDS011;52876;49.394;10.892;2022-10-03T10:30:33;6.27;;;3.57;;
66093;SDS011;52876;49.394;10.892;2022-10-03T10:33:43;7.17;;;3.50;;
66093;SDS011;52876;49.394;10.892;2022-10-03T10:42:43;7.90;;;4.00;;
66093;SDS011;52876;49.394;10.892;2022-10-03T10:45:59;3.63;;;2.97;;
66093;SDS011;52876;49.394;10.892;2022-10-03T10:48:50;2.80;;;2.33;;
66093;SDS011;52876;49.394;10.892;2022-10-03T10:58:23;3.60;;;2.57;;
66093;SDS011;52876;49.394;10.892;2022-10-03T11:01:44;3.43;;;2.50;;
66093;SDS011;52876;49.394;10.892;2022-10-03T11:11:27;4.20;;;2.40;;
66093;SDS011;52876;49.394;10.892;2022-10-03T11:14:20;5.40;;;2.23;;
66093;SDS011;52876;49.394;10.892;2022-10-03T11:17:18;3.50;;;3.20;;
66093;SDS011;52876;49.394;10.892;2022-10-03T11:20:16;3.80;;;2.50;;
66093;SDS011;52876;49.394;10.892;2022-10-03T11:25:46;6.40;;;2.67;;
66093;SDS011;52876;49.394;10.892;2022-10-03T11:35:09;2.70;;;2.50;;
66093;SDS011;52876;49.394;10.892;2022-10-03T11:37:53;3.73;;;2.50;;
66093;SDS011;52876;49.394;10.892;2022-10-03T11:40:26;4.07;;;2.87;;
66093;SDS011;52876;49.394;10.892;2022-10-03T11:43:23;4.70;;;2.47;;
66093;SDS011;52876;49.394;10.892;2022-10-03T11:46:29;3.83;;;2.50;;
66093;SDS011;52876;49.394;10.892;2022-10-03T11:49:17;4.13;;;2.40;;
66093;SDS011;52876;49.394;10.892;2022-10-03T11:52:14;4.33;;;2.77;;
66093;SDS011;52876;49.394;10.892;2022-10-03T11:54:54;4.67;;;2.67;;
66093;SDS011;52876;49.394;10.892;2022-10-03T12:00:15;3.33;;;2.00;;
66093;SDS011;52876;49.394;10.892;2022-10-03T12:02:51;2.77;;;2.07;;
66093;SDS011;52876;49.394;10.892;2022-10-03T12:05:47;3.00;;;2.00;;
66093;SDS011;52876;49.394;10.892;2022-10-03T12:08:18;2.50;;;1.30;;
66093;SDS011;52876;49.394;10.892;2022-10-03T12:10:51;4.77;;;1.87;;
66093;SDS011;52876;49.394;10.892;2022-10-03T12:13:29;1.80;;;1.70;;
66093;SDS011;52876;49.394;10.892;2022-10-03T12:16:00;2.63;;;1.50;;
66093;SDS011;52876;49.394;10.892;2022-10-03T12:18:31;1.70;;;1.50;;
66093;SDS011;52876;49.394;10.892;2022-10-03T12:21:18;1.30;;;1.10;;
66093;SDS011;52876;49.394;10.892;2022-10-03T12:24:02;2.77;;;1.23;;
66093;SDS011;52876;49.394;10.892;2022-10-03T12:26:42;6.97;;;1.73;;
66093;SDS011;52876;49.394;10.892;2022-10-03T12:29:16;1.73;;;1.33;;
66093;SDS011;52876;49.394;10.892;2022-10-03T12:31:46;2.40;;;1.20;;
66093;SDS011;52876;49.394;10.892;2022-10-03T12:34:29;2.30;;;1.23;;
66093;SDS011;52876;49.394;10.892;2022-10-03T12:39:47;2.87;;;1.20;;
66093;SDS011;52876;49.394;10.892;2022-10-03T12:42:25;4.83;;;1.30;;
66093;SDS011;52876;49.394;10.892;2022-10-03T12:44:56;1.57;;;1.30;;
66093;SDS011;52876;49.394;10.892;2022-10-03T12:47:31;6.80;;;2.23;;
66093;SDS011;52876;49.394;10.892;2022-10-03T12:50:12;2.83;;;2.10;;
66093;SDS011;52876;49.394;10.892;2022-10-03T12:52:48;1.70;;;1.40;;
66093;SDS011;52876;49.394;10.892;2022-10-03T12:55:29;4.27;;;1.67;;
66093;SDS011;52876;49.394;10.892;2022-10-03T12:57:59;3.87;;;1.40;;
66093;SDS011;52876;49.394;10.892;2022-10-03T13:00:32;4.03;;;2.00;;
66093;SDS011;52876;49.394;10.892;2022-10-03T13:03:14;1.70;;;1.30;;
66093;SDS011;52876;49.394;10.892;2022-10-03T13:08:42;4.40;;;1.40;;
66093;SDS011;52876;49.394;10.892;2022-10-03T13:14:12;2.20;;;1.20;;
66093;SDS011;52876;49.394;10.892;2022-10-03T13:16:53;1.73;;;1.30;;
66093;SDS011;52876;49.394;10.892;2022-10-03T13:19:29;2.23;;;1.20;;
66093;SDS011;52876;49.394;10.892;2022-10-03T13:22:05;3.20;;;1.53;;
66093;SDS011;52876;49.394;10.892;2022-10-03T13:24:45;2.50;;;2.00;;
66093;SDS011;52876;49.394;10.892;2022-10-03T13:27:25;3.70;;;1.83;;
66093;SDS011;52876;49.394;10.892;2022-10-03T13:30:12;4.03;;;1.50;;
66093;SDS011;52876;49.394;10.892;2022-10-03T13:32:42;5.33;;;2.33;;
66093;SDS011;52876;49.394;10.892;2022-10-03T13:35:25;3.40;;;2.50;;
66093;SDS011;52876;49.394;10.892;2022-10-03T13:38:12;3.63;;;1.80;;
66093;SDS011;52876;49.394;10.892;2022-10-03T13:40:54;3.90;;;3.07;;
66093;SDS011;52876;49.394;10.892;2022-10-03T13:43:26;3.00;;;2.63;;
66093;SDS011;52876;49.394;10.892;2022-10-03T13:45:57;5.50;;;1.60;;
66093;SDS011;52876;49.394;10.892;2022-10-03T13:48:25;2.80;;;1.83;;
66093;SDS011;52876;49.394;10.892;2022-10-03T13:50:54;2.33;;;1.50;;
66093;SDS011;52876;49.394;10.892;2022-10-03T13:53:28;3.27;;;1.90;;
66093;SDS011;52876;49.394;10.892;2022-10-03T13:56:08;4.10;;;2.00;;
66093;SDS011;52876;49.394;10.892;2022-10-03T13:58:44;3.40;;;1.80;;
66093;SDS011;52876;49.394;10.892;2022-10-03T14:01:35;2.53;;;1.40;;
66093;SDS011;52876;49.394;10.892;2022-10-03T14:07:14;3.30;;;3.03;;
66093;SDS011;52876;49.394;10.892;2022-10-03T14:12:47;3.03;;;1.73;;
66093;SDS011;52876;49.394;10.892;2022-10-03T14:15:28;2.23;;;1.30;;
66093;SDS011;52876;49.394;10.892;2022-10-03T14:18:02;1.70;;;1.60;;
66093;SDS011;52876;49.394;10.892;2022-10-03T14:23:41;1.40;;;1.30;;
66093;SDS011;52876;49.394;10.892;2022-10-03T14:26:12;2.50;;;1.50;;
66093;SDS011;52876;49.394;10.892;2022-10-03T14:31:31;3.80;;;2.20;;
66093;SDS011;52876;49.394;10.892;2022-10-03T14:34:05;5.63;;;2.10;;
66093;SDS011;52876;49.394;10.892;2022-10-03T14:36:41;1.60;;;1.33;;
66093;SDS011;52876;49.394;10.892;2022-10-03T14:39:15;3.90;;;1.90;;
66093;SDS011;52876;49.394;10.892;2022-10-03T14:42:05;3.30;;;1.60;;
66093;SDS011;52876;49.394;10.892;2022-10-03T14:44:45;2.23;;;2.03;;
66093;SDS011;52876;49.394;10.892;2022-10-03T14:47:18;4.53;;;2.50;;
66093;SDS011;52876;49.394;10.892;2022-10-03T14:49:46;2.60;;;1.80;;
66093;SDS011;52876;49.394;10.892;2022-10-03T14:52:18;3.07;;;1.70;;
66093;SDS011;52876;49.394;10.892;2022-10-03T14:54:50;2.97;;;1.60;;
66093;SDS011;52876;49.394;10.892;2022-10-03T14:57:21;7.23;;;2.30;;
66093;SDS011;52876;49.394;10.892;2022-10-03T14:59:56;3.23;;;1.73;;
66093;SDS011;52876;49.394;10.892;2022-10-03T15:02:24;2.00;;;1.80;;
66093;SDS011;52876;49.394;10.892;2022-10-03T15:04:53;2.67;;;1.87;;
66093;SDS011;52876;49.394;10.892;2022-10-03T15:07:31;8.03;;;3.20;;
66093;SDS011;52876;49.394;10.892;2022-10-03T15:09:59;2.80;;;2.60;;
66093;SDS011;52876;49.394;10.892;2022-10-03T15:12:26;4.70;;;3.83;;
66093;SDS011;52876;49.394;10.892;2022-10-03T15:15:00;2.70;;;2.40;;
66093;SDS011;52876;49.394;10.892;2022-10-03T15:17:29;6.33;;;2.50;;
66093;SDS011;52876;49.394;10.892;2022-10-03T15:19:57;2.77;;;1.80;;
66093;SDS011;52876;49.394;10.892;2022-10-03T15:22:29;3.57;;;2.23;;
66093;SDS011;52876;49.394;10.892;2022-10-03T15:25:11;3.20;;;1.70;;
66093;SDS011;52876;49.394;10.892;2022-10-03T15:27:39;4.03;;;2.13;;
66093;SDS011;52876;49.394;10.892;2022-10-03T15:30:14;4.27;;;2.77;;
66093;SDS011;52876;49.394;10.892;2022-10-03T15:32:44;3.63;;;1.60;;
66093;SDS011;52876;49.394;10.892;2022-10-03T15:35:14;4.10;;;2.20;;
66093;SDS011;52876;49.394;10.892;2022-10-03T15:37:42;2.43;;;2.23;;
66093;SDS011;52876;49.394;10.892;2022-10-03T15:40:09;5.37;;;2.90;;
66093;SDS011;52876;49.394;10.892;2022-10-03T15:42:47;14.70;;;11.17;;
66093;SDS011;52876;49.394;10.892;2022-10-03T15:45:18;7.93;;;7.07;;
66093;SDS011;52876;49.394;10.892;2022-10-03T15:47:47;9.93;;;6.13;;
66093;SDS011;52876;49.394;10.892;2022-10-03T15:50:16;14.27;;;12.77;;
66093;SDS011;52876;49.394;10.892;2022-10-03T15:52:45;6.90;;;6.17;;
66093;SDS011;52876;49.394;10.892;2022-10-03T15:55:16;9.83;;;7.80;;
66093;SDS011;52876;49.394;10.892;2022-10-03T15:57:44;2.53;;;1.90;;
66093;SDS011;52876;49.394;10.892;2022-10-03T16:00:20;2.63;;;2.30;;
66093;SDS011;52876;49.394;10.892;2022-10-03T16:02:48;2.47;;;2.27;;
66093;SDS011;52876;49.394;10.892;2022-10-03T16:05:20;2.00;;;1.80;;
66093;SDS011;52876;49.394;10.892;2022-10-03T16:07:48;2.70;;;2.50;;
66093;SDS011;52876;49.394;10.892;2022-10-03T16:10:23;3.83;;;2.30;;
66093;SDS011;52876;49.394;10.892;2022-10-03T16:12:54;4.40;;;2.57;;
66093;SDS011;52876;49.394;10.892;2022-10-03T16:15:26;3.73;;;2.40;;
66093;SDS011;52876;49.394;10.892;2022-10-03T16:18:08;2.53;;;2.13;;
66093;SDS011;52876;49.394;10.892;2022-10-03T16:20:55;2.80;;;2.60;;
66093;SDS011;52876;49.394;10.892;2022-10-03T16:23:25;3.87;;;2.80;;
66093;SDS011;52876;49.394;10.892;2022-10-03T16:25:55;10.10;;;4.80;;
66093;SDS011;52876;49.394;10.892;2022-10-03T16:28:24;2.83;;;2.63;;
66093;SDS011;52876;49.394;10.892;2022-10-03T16:30:58;4.70;;;3.13;;
66093;SDS011;52876;49.394;10.892;2022-10-03T16:33:27;6.47;;;5.90;;
66093;SDS011;52876;49.394;10.892;2022-10-03T16:35:57;4.10;;;3.37;;
66093;SDS011;52876;49.394;10.892;2022-10-03T16:38:26;5.07;;;3.10;;
66093;SDS011;52876;49.394;10.892;2022-10-03T16:40:56;5.17;;;3.73;;
66093;SDS011;52876;49.394;10.892;2022-10-03T16:43:29;3.93;;;3.60;;
66093;SDS011;52876;49.394;10.892;2022-10-03T16:45:59;4.80;;;3.83;;
66093;SDS011;52876;49.394;10.892;2022-10-03T16:48:29;5.07;;;4.70;;
66093;SDS011;52876;49.394;10.892;2022-10-03T16:50:57;5.40;;;4.60;;
66093;SDS011;52876;49.394;10.892;2022-10-03T16:53:23;6.37;;;4.03;;
66093;SDS011;52876;49.394;10.892;2022-10-03T16:55:49;5.50;;;4.43;;
66093;SDS011;52876;49.394;10.892;2022-10-03T16:58:19;5.10;;;4.63;;
66093;SDS011;52876;49.394;10.892;2022-10-03T17:00:49;8.30;;;6.60;;
66093;SDS011;52876;49.394;10.892;2022-10-03T17:03:20;8.50;;;6.30;;
66093;SDS011;52876;49.394;10.892;2022-10-03T17:05:48;5.53;;;5.00;;
66093;SDS011;52876;49.394;10.892;2022-10-03T17:08:17;4.73;;;3.80;;
66093;SDS011;52876;49.394;10.892;2022-10-03T17:10:51;4.97;;;3.73;;
66093;SDS011;52876;49.394;10.892;2022-10-03T17:13:19;5.77;;;3.93;;
66093;SDS011;52876;49.394;10.892;2022-10-03T17:15:47;5.13;;;4.27;;
66093;SDS011;52876;49.394;10.892;2022-10-03T17:18:24;4.70;;;4.30;;
66093;SDS011;52876;49.394;10.892;2022-10-03T17:20:54;6.47;;;4.50;;
66093;SDS011;52876;49.394;10.892;2022-10-03T17:23:30;4.60;;;4.30;;
66093;SDS011;52876;49.394;10.892;2022-10-03T17:26:01;5.73;;;5.27;;
66093;SDS011;52876;49.394;10.892;2022-10-03T17:28:33;5.33;;;4.83;;
66093;SDS011;52876;49.394;10.892;2022-10-03T17:31:24;7.40;;;6.80;;
66093;SDS011;52876;49.394;10.892;2022-10-03T17:33:56;6.97;;;6.27;;
66093;SDS011;52876;49.394;10.892;2022-10-03T17:36:38;6.13;;;5.60;;
66093;SDS011;52876;49.394;10.892;2022-10-03T17:39:35;8.53;;;5.37;;
66093;SDS011;52876;49.394;10.892;2022-10-03T17:42:07;6.53;;;5.30;;
66093;SDS011;52876;49.394;10.892;2022-10-03T17:44:45;6.13;;;5.30;;
66093;SDS011;52876;49.394;10.892;2022-10-03T17:47:21;7.13;;;5.07;;
66093;SDS011;52876;49.394;10.892;2022-10-03T17:49:57;8.10;;;4.70;;
66093;SDS011;52876;49.394;10.892;2022-10-03T17:52:29;8.17;;;5.47;;
66093;SDS011;52876;49.394;10.892;2022-10-03T17:54:56;6.27;;;5.40;;
66093;SDS011;52876;49.394;10.892;2022-10-03T17:57:24;5.97;;;4.37;;
66093;SDS011;52876;49.394;10.892;2022-10-03T17:59:54;3.57;;;3.27;;
66093;SDS011;52876;49.394;10.892;2022-10-03T18:02:24;3.50;;;2.97;;
66093;SDS011;52876;49.394;10.892;2022-10-03T18:05:01;5.27;;;4.87;;
66093;SDS011;52876;49.394;10.892;2022-10-03T18:07:34;3.73;;;3.33;;
66093;SDS011;52876;49.394;10.892;2022-10-03T18:10:00;3.43;;;3.13;;
66093;SDS011;52876;49.394;10.892;2022-10-03T18:12:28;5.57;;;2.60;;
66093;SDS011;52876;49.394;10.892;2022-10-03T18:15:12;10.07;;;6.67;;
66093;SDS011;52876;49.394;10.892;2022-10-03T18:17:57;8.23;;;6.10;;
66093;SDS011;52876;49.394;10.892;2022-10-03T18:20:36;6.90;;;5.00;;
66093;SDS011;52876;49.394;10.892;2022-10-03T18:23:17;5.60;;;4.73;;
66093;SDS011;52876;49.394;10.892;2022-10-03T18:25:51;4.63;;;4.27;;